createdAt,value
2018-11-06T00:00:57.946Z,997.65
2018-11-06T00:02:12.001Z,997.6
2018-11-06T00:03:26.042Z,997.61
2018-11-06T00:04:39.824Z,997.57
2018-11-06T00:05:53.850Z,997.54
2018-11-06T00:07:07.396Z,997.56
2018-11-06T00:08:21.916Z,997.55
2018-11-06T00:09:35.742Z,997.53
2018-11-06T00:10:49.500Z,997.53
2018-11-06T00:12:03.523Z,997.56
2018-11-06T00:13:32.512Z,997.54
2018-11-06T00:14:46.237Z,997.6
2018-11-06T00:16:00.270Z,997.59
2018-11-06T00:17:14.102Z,997.66
2018-11-06T00:18:28.112Z,997.71
2018-11-06T00:19:42.398Z,997.68
2018-11-06T00:20:56.494Z,997.69
2018-11-06T00:22:10.339Z,997.67
2018-11-06T00:23:24.125Z,997.6
2018-11-06T00:24:38.359Z,997.62
2018-11-06T00:25:52.403Z,997.64
2018-11-06T00:27:06.972Z,997.69
2018-11-06T00:28:20.764Z,997.72
2018-11-06T00:29:35.312Z,997.72
2018-11-06T00:30:48.866Z,997.73
2018-11-06T00:32:02.734Z,997.69
2018-11-06T00:33:16.362Z,997.7
2018-11-06T00:34:30.632Z,997.65
2018-11-06T00:35:44.901Z,997.61
2018-11-06T00:36:58.933Z,997.56
2018-11-06T00:38:12.517Z,997.55
2018-11-06T00:39:26.621Z,997.58
2018-11-06T00:40:40.414Z,997.57
2018-11-06T00:41:54.188Z,997.62
2018-11-06T00:43:08.002Z,997.64
2018-11-06T00:44:22.016Z,997.65
2018-11-06T00:45:36.554Z,997.65
2018-11-06T00:46:50.380Z,997.69
2018-11-06T00:48:04.765Z,997.68
2018-11-06T00:49:19.102Z,997.65
2018-11-06T00:50:32.885Z,997.67
2018-11-06T00:51:47.147Z,997.66
2018-11-06T00:53:01.148Z,997.62
2018-11-06T00:54:15.189Z,997.59
2018-11-06T00:55:29.008Z,997.6
2018-11-06T00:56:42.871Z,997.58
2018-11-06T00:57:56.752Z,997.56
2018-11-06T00:59:10.790Z,997.56
2018-11-06T01:00:24.808Z,997.62
2018-11-06T01:01:53.291Z,997.62
2018-11-06T01:03:06.838Z,997.62
2018-11-06T01:04:21.205Z,997.67
2018-11-06T01:05:35.436Z,997.74
2018-11-06T01:06:49.459Z,997.75
2018-11-06T01:08:03.024Z,997.75
2018-11-06T01:09:16.846Z,997.77
2018-11-06T01:23:07.779Z,997.66
2018-11-06T01:24:21.367Z,997.62
2018-11-06T01:25:35.620Z,997.62
2018-11-06T01:26:49.734Z,997.63
2018-11-06T01:28:03.564Z,997.58
2018-11-06T01:29:17.160Z,997.58
2018-11-06T01:30:30.748Z,997.58
2018-11-06T01:31:44.547Z,997.6
2018-11-06T01:32:58.827Z,997.58
2018-11-06T01:34:12.821Z,997.59
2018-11-06T01:35:27.329Z,997.59
2018-11-06T01:36:40.884Z,997.56
2018-11-06T01:37:54.733Z,997.58
2018-11-06T01:39:08.533Z,997.59
2018-11-06T01:40:22.588Z,997.54
2018-11-06T01:41:37.142Z,997.54
2018-11-06T01:42:51.397Z,997.53
2018-11-06T01:44:05.883Z,997.5
2018-11-06T01:45:19.698Z,997.48
2018-11-06T01:46:33.749Z,997.51
2018-11-06T01:47:48.077Z,997.51
2018-11-06T01:49:02.097Z,997.53
2018-11-06T01:50:16.145Z,997.58
2018-11-06T01:51:30.163Z,997.54
2018-11-06T01:52:43.989Z,997.58
2018-11-06T01:53:58.542Z,997.56
2018-11-06T01:55:11.883Z,997.6
2018-11-06T01:57:54.827Z,997.57
2018-11-06T01:59:08.393Z,997.57
2018-11-06T02:00:22.739Z,997.61
2018-11-06T02:01:36.767Z,997.62
2018-11-06T02:02:53.134Z,997.63
2018-11-06T02:04:07.196Z,997.65
2018-11-06T02:05:21.229Z,997.61
2018-11-06T02:06:35.779Z,997.63
2018-11-06T02:07:49.805Z,997.61
2018-11-06T02:09:04.340Z,997.58
2018-11-06T02:10:18.440Z,997.57
2018-11-06T02:11:32.989Z,997.6
2018-11-06T02:12:51.118Z,997.58
2018-11-06T02:14:05.165Z,997.55
2018-11-06T02:15:19.406Z,997.53
2018-11-06T02:16:33.186Z,997.54
2018-11-06T02:17:47.452Z,997.54
2018-11-06T02:19:01.719Z,997.54
2018-11-06T02:20:16.391Z,997.55
2018-11-06T02:21:30.174Z,997.55
2018-11-06T02:22:44.283Z,997.53
2018-11-06T02:23:58.549Z,997.49
2018-11-06T02:25:12.872Z,997.47
2018-11-06T02:26:26.752Z,997.43
2018-11-06T02:27:41.239Z,997.44
2018-11-06T02:28:55.503Z,997.41
2018-11-06T02:30:09.331Z,997.41
2018-11-06T02:31:22.939Z,997.33
2018-11-06T02:32:37.322Z,997.36
2018-11-06T02:33:50.968Z,997.33
2018-11-06T02:35:05.274Z,997.33
2018-11-06T02:36:19.595Z,997.34
2018-11-06T02:37:34.315Z,997.3
2018-11-06T02:38:48.813Z,997.25
2018-11-06T02:40:03.055Z,997.27
2018-11-06T02:41:17.375Z,997.26
2018-11-06T02:42:31.401Z,997.21
2018-11-06T02:43:45.001Z,997.19
2018-11-06T02:44:59.298Z,997.19
2018-11-06T02:46:13.341Z,997.21
2018-11-06T02:47:27.357Z,997.24
2018-11-06T02:48:41.403Z,997.32
2018-11-06T02:49:56.012Z,997.35
2018-11-06T02:51:09.326Z,997.47
2018-11-06T02:52:22.931Z,997.55
2018-11-06T02:53:37.496Z,997.57
2018-11-06T02:54:51.534Z,997.6
2018-11-06T02:56:06.085Z,997.57
2018-11-06T02:57:20.339Z,997.61
2018-11-06T02:58:34.642Z,997.66
2018-11-06T02:59:49.017Z,997.65
2018-11-06T03:01:03.058Z,997.66
2018-11-06T03:02:21.118Z,997.71
2018-11-06T03:03:35.389Z,997.71
2018-11-06T03:04:49.188Z,997.8
2018-11-06T03:06:03.413Z,997.85
2018-11-06T03:07:17.444Z,997.85
2018-11-06T03:08:31.013Z,997.87
2018-11-06T03:09:45.282Z,997.87
2018-11-06T03:10:59.097Z,997.82
2018-11-06T03:12:13.380Z,997.74
2018-11-06T03:13:27.406Z,997.62
2018-11-06T03:14:41.203Z,997.58
2018-11-06T03:15:55.486Z,997.55
2018-11-06T03:17:09.968Z,997.55
2018-11-06T03:18:23.785Z,997.59
2018-11-06T03:19:37.857Z,997.57
2018-11-06T03:20:52.333Z,997.58
2018-11-06T03:22:06.467Z,997.57
2018-11-06T03:23:20.472Z,997.59
2018-11-06T03:24:34.257Z,997.55
2018-11-06T03:25:48.540Z,997.57
2018-11-06T03:27:03.325Z,997.61
2018-11-06T03:28:18.575Z,997.63
2018-11-06T03:29:32.862Z,997.61
2018-11-06T03:30:46.880Z,997.63
2018-11-06T03:32:01.011Z,997.61
2018-11-06T03:33:14.753Z,997.63
2018-11-06T03:34:28.846Z,997.61
2018-11-06T03:35:42.652Z,997.59
2018-11-06T03:36:56.464Z,997.58
2018-11-06T03:38:10.491Z,997.58
2018-11-06T03:39:39.761Z,997.58
2018-11-06T03:40:53.559Z,997.64
2018-11-06T03:42:07.585Z,997.68
2018-11-06T03:43:21.616Z,997.67
2018-11-06T03:44:35.431Z,997.7
2018-11-06T03:45:49.471Z,997.66
2018-11-06T03:47:03.279Z,997.7
2018-11-06T03:48:17.513Z,997.69
2018-11-06T03:49:31.770Z,997.7
2018-11-06T03:50:45.074Z,997.7
2018-11-06T03:51:59.459Z,997.67
2018-11-06T03:53:13.017Z,997.74
2018-11-06T03:54:26.588Z,997.75
2018-11-06T03:55:40.418Z,997.77
2018-11-06T03:56:54.313Z,997.77
2018-11-06T03:58:08.848Z,997.73
2018-11-06T03:59:22.671Z,997.76
2018-11-06T04:00:36.694Z,997.79
2018-11-06T04:01:51.187Z,997.76
2018-11-06T04:03:05.445Z,997.78
2018-11-06T04:04:20.221Z,997.82
2018-11-06T04:05:33.950Z,997.77
2018-11-06T04:06:47.965Z,997.82
2018-11-06T04:08:02.489Z,997.82
2018-11-06T04:10:45.248Z,997.74
2018-11-06T04:11:59.506Z,997.73
2018-11-06T04:13:13.324Z,997.7
2018-11-06T04:14:27.209Z,997.66
2018-11-06T04:15:41.000Z,997.61
2018-11-06T04:16:55.490Z,997.59
2018-11-06T04:18:09.277Z,997.6
2018-11-06T04:19:23.826Z,997.63
2018-11-06T04:20:37.589Z,997.64
2018-11-06T04:21:51.589Z,997.59
2018-11-06T04:23:05.743Z,997.61
2018-11-06T04:24:20.134Z,997.55
2018-11-06T04:25:34.219Z,997.55
2018-11-06T04:26:48.317Z,997.49
2018-11-06T04:28:02.405Z,997.53
2018-11-06T04:29:16.776Z,997.54
2018-11-06T04:30:30.837Z,997.54
2018-11-06T04:31:44.872Z,997.56
2018-11-06T04:32:58.906Z,997.54
2018-11-06T04:34:12.541Z,997.59
2018-11-06T04:35:26.618Z,997.56
2018-11-06T04:36:40.685Z,997.59
2018-11-06T04:37:55.077Z,997.56
2018-11-06T04:39:08.432Z,997.58
2018-11-06T04:40:22.958Z,997.6
2018-11-06T04:41:37.027Z,997.59
2018-11-06T04:42:51.327Z,997.58
2018-11-06T04:44:05.648Z,997.59
2018-11-06T04:45:20.118Z,997.62
2018-11-06T04:46:33.713Z,997.65
2018-11-06T04:47:48.283Z,997.62
2018-11-06T04:49:02.456Z,997.61
2018-11-06T04:50:16.569Z,997.6
2018-11-06T04:51:32.227Z,997.54
2018-11-06T04:52:46.565Z,997.6
2018-11-06T04:54:01.435Z,997.58
2018-11-06T04:55:15.454Z,997.58
2018-11-06T04:56:29.027Z,997.55
2018-11-06T04:57:42.558Z,997.54
2018-11-06T04:58:56.857Z,997.53
2018-11-06T05:00:11.370Z,997.56
2018-11-06T05:01:24.943Z,997.55
2018-11-06T05:02:39.207Z,997.57
2018-11-06T05:03:53.559Z,997.52
2018-11-06T05:05:07.590Z,997.53
2018-11-06T05:06:22.271Z,997.5
2018-11-06T05:07:36.650Z,997.56
2018-11-06T05:08:50.577Z,997.43
2018-11-06T05:10:04.374Z,997.49
2018-11-06T05:11:18.278Z,997.53
2018-11-06T05:12:32.811Z,997.53
2018-11-06T05:13:46.386Z,997.55
2018-11-06T05:15:00.957Z,997.59
2018-11-06T05:16:14.777Z,997.57
2018-11-06T05:17:29.262Z,997.57
2018-11-06T05:18:43.509Z,997.55
2018-11-06T05:19:57.573Z,997.57
2018-11-06T05:21:11.390Z,997.45
2018-11-06T05:22:25.651Z,997.41
2018-11-06T05:23:39.933Z,997.49
2018-11-06T05:24:53.821Z,997.45
2018-11-06T05:26:08.108Z,997.44
2018-11-06T05:27:21.785Z,997.46
2018-11-06T05:28:36.877Z,997.47
2018-11-06T05:29:51.191Z,997.54
2018-11-06T05:31:04.992Z,997.54
2018-11-06T05:32:18.996Z,997.58
2018-11-06T05:33:32.603Z,997.6
2018-11-06T05:34:47.252Z,997.61
2018-11-06T05:36:01.642Z,997.65
2018-11-06T05:37:15.935Z,997.64
2018-11-06T05:38:29.961Z,997.66
2018-11-06T05:39:43.740Z,997.61
2018-11-06T05:40:57.545Z,997.66
2018-11-06T05:42:11.560Z,997.68
2018-11-06T05:43:25.336Z,997.71
2018-11-06T05:44:39.486Z,997.67
2018-11-06T05:45:53.268Z,997.73
2018-11-06T05:47:07.554Z,997.66
2018-11-06T05:48:22.049Z,997.65
2018-11-06T05:49:36.110Z,997.68
2018-11-06T05:50:54.122Z,997.73
2018-11-06T05:52:08.245Z,997.7
2018-11-06T05:53:22.177Z,997.75
2018-11-06T05:54:36.268Z,997.72
2018-11-06T05:55:50.969Z,997.72
2018-11-06T05:57:05.277Z,997.67
2018-11-06T05:58:19.344Z,997.7
2018-11-06T05:59:33.141Z,997.69
2018-11-06T06:00:47.849Z,997.71
2018-11-06T06:02:02.159Z,997.73
2018-11-06T06:03:16.018Z,997.74
2018-11-06T06:04:29.629Z,997.78
2018-11-06T06:05:43.216Z,997.77
2018-11-06T06:06:57.365Z,997.74
2018-11-06T06:08:11.209Z,997.81
2018-11-06T06:09:24.897Z,997.84
2018-11-06T06:10:40.141Z,997.89
2018-11-06T06:11:54.583Z,997.85
2018-11-06T06:13:08.644Z,997.94
2018-11-06T06:14:23.182Z,997.9
2018-11-06T06:15:36.968Z,997.91
2018-11-06T06:16:51.085Z,997.92
2018-11-06T06:18:20.352Z,997.96
2018-11-06T06:19:34.397Z,997.98
2018-11-06T06:20:48.473Z,997.93
2018-11-06T06:22:02.496Z,997.96
2018-11-06T06:23:15.851Z,998.03
2018-11-06T06:24:29.417Z,998.02
2018-11-06T06:25:43.026Z,998.01
2018-11-06T06:26:57.295Z,998.07
2018-11-06T06:28:25.686Z,998.07
2018-11-06T06:29:40.616Z,998.05
2018-11-06T06:30:55.434Z,998.05
2018-11-06T06:32:09.709Z,998.05
2018-11-06T06:33:23.990Z,998.04
2018-11-06T06:34:38.366Z,998.09
2018-11-06T06:35:52.817Z,997.98
2018-11-06T06:37:07.772Z,998.02
2018-11-06T06:38:21.093Z,997.98
2018-11-06T06:39:35.574Z,997.96
2018-11-06T06:40:49.736Z,997.98
2018-11-06T06:42:04.983Z,997.95
2018-11-06T06:43:19.339Z,997.92
2018-11-06T06:44:33.411Z,997.91
2018-11-06T06:45:47.441Z,997.89
2018-11-06T06:47:01.284Z,997.89
2018-11-06T06:48:15.366Z,997.84
2018-11-06T06:49:29.461Z,997.82
2018-11-06T06:50:42.908Z,997.82
2018-11-06T06:51:56.471Z,997.85
2018-11-06T06:53:10.068Z,997.83
2018-11-06T06:54:24.085Z,997.81
2018-11-06T06:55:39.189Z,997.81
2018-11-06T06:56:53.248Z,997.73
2018-11-06T06:58:07.555Z,997.78
2018-11-06T06:59:21.822Z,997.77
2018-11-06T07:00:36.041Z,997.76
2018-11-06T07:01:50.222Z,997.77
2018-11-06T07:03:04.025Z,997.8
2018-11-06T07:04:17.835Z,997.82
2018-11-06T07:05:31.886Z,997.85
2018-11-06T07:06:46.152Z,997.86
2018-11-06T07:08:00.822Z,997.88
2018-11-06T07:11:16.063Z,997.84
2018-11-06T07:12:30.563Z,997.86
2018-11-06T07:13:45.260Z,997.84
2018-11-06T07:14:59.090Z,997.79
2018-11-06T07:16:13.145Z,997.83
2018-11-06T07:17:27.225Z,997.84
2018-11-06T07:18:41.384Z,997.86
2018-11-06T07:20:10.243Z,997.87
2018-11-06T07:21:24.320Z,997.91
2018-11-06T07:22:38.358Z,997.91
2018-11-06T07:23:52.551Z,997.92
2018-11-06T07:25:06.388Z,997.94
2018-11-06T07:26:20.208Z,997.95
2018-11-06T07:27:48.934Z,997.9
2018-11-06T07:29:02.975Z,997.94
2018-11-06T07:30:16.334Z,997.92
2018-11-06T07:31:30.753Z,997.91
2018-11-06T07:32:44.529Z,997.92
2018-11-06T07:33:59.044Z,997.89
2018-11-06T07:35:12.641Z,997.9
2018-11-06T07:36:28.036Z,997.87
2018-11-06T07:37:41.908Z,997.85
2018-11-06T07:40:24.972Z,997.87
2018-11-06T07:41:39.173Z,997.88
2018-11-06T07:43:07.680Z,997.85
2018-11-06T07:44:22.016Z,997.91
2018-11-06T07:45:35.354Z,997.9
2018-11-06T07:46:49.514Z,997.9
2018-11-06T07:48:18.508Z,997.93
2018-11-06T07:52:33.427Z,998.04
2018-11-06T07:53:47.254Z,998.05
2018-11-06T07:55:00.828Z,998
2018-11-06T07:56:14.775Z,998.01
2018-11-06T07:57:28.629Z,997.93
2018-11-06T07:58:42.713Z,997.92
2018-11-06T07:59:57.042Z,997.91
2018-11-06T08:01:11.262Z,997.93
2018-11-06T08:02:25.116Z,997.92
2018-11-06T08:03:39.177Z,997.92
2018-11-06T08:04:52.952Z,997.89
2018-11-06T08:06:07.008Z,997.89
2018-11-06T08:07:21.081Z,997.85
2018-11-06T08:08:35.366Z,997.85
2018-11-06T08:09:49.740Z,997.89
2018-11-06T08:11:18.356Z,997.85
2018-11-06T08:12:32.235Z,997.83
2018-11-06T08:13:46.306Z,997.84
2018-11-06T08:15:00.423Z,997.83
2018-11-06T08:16:14.362Z,997.76
2018-11-06T08:17:28.199Z,997.78
2018-11-06T08:18:42.497Z,997.78
2018-11-06T08:19:56.870Z,997.76
2018-11-06T08:21:11.460Z,997.7
2018-11-06T08:22:25.358Z,997.76
2018-11-06T08:23:39.104Z,997.7
2018-11-06T08:24:53.274Z,997.73
2018-11-06T08:26:07.383Z,997.67
2018-11-06T08:27:21.227Z,997.69
2018-11-06T08:28:35.749Z,997.69
2018-11-06T08:29:50.068Z,997.67
2018-11-06T08:31:04.659Z,997.64
2018-11-06T08:32:18.845Z,997.63
2018-11-06T08:33:35.174Z,997.66
2018-11-06T08:34:49.677Z,997.66
2018-11-06T08:36:03.521Z,997.71
2018-11-06T08:37:17.847Z,997.65
2018-11-06T08:38:32.158Z,997.67
2018-11-06T08:39:46.318Z,997.69
2018-11-06T08:40:59.910Z,997.68
2018-11-06T08:42:13.752Z,997.66
2018-11-06T08:43:28.470Z,997.64
2018-11-06T08:44:42.781Z,997.62
2018-11-06T08:45:56.853Z,997.62
2018-11-06T08:47:10.684Z,997.66
2018-11-06T08:48:24.234Z,997.71
2018-11-06T08:49:37.794Z,997.71
2018-11-06T08:50:51.809Z,997.7
2018-11-06T08:52:05.897Z,997.71
2018-11-06T08:53:19.949Z,997.65
2018-11-06T08:54:33.826Z,997.68
2018-11-06T08:55:48.192Z,997.65
2018-11-06T08:57:02.306Z,997.68
2018-11-06T08:58:15.954Z,997.61
2018-11-06T08:59:30.535Z,997.63
2018-11-06T09:00:44.555Z,997.61
2018-11-06T09:01:58.972Z,997.6
2018-11-06T09:03:13.014Z,997.61
2018-11-06T09:04:26.411Z,997.56
2018-11-06T09:05:40.078Z,997.52
2018-11-06T09:06:54.709Z,997.53
2018-11-06T09:08:08.774Z,997.48
2018-11-06T09:09:22.669Z,997.48
2018-11-06T09:10:36.723Z,997.51
2018-11-06T09:11:50.793Z,997.51
2018-11-06T09:13:05.121Z,997.54
2018-11-06T09:14:19.488Z,997.55
2018-11-06T09:15:33.555Z,997.51
2018-11-06T09:16:47.227Z,997.55
2018-11-06T09:18:01.954Z,997.5
2018-11-06T09:19:30.476Z,997.48
2018-11-06T09:20:44.613Z,997.43
2018-11-06T09:21:58.895Z,997.39
2018-11-06T09:23:12.641Z,997.38
2018-11-06T09:24:26.712Z,997.44
2018-11-06T09:25:40.267Z,997.47
2018-11-06T09:26:53.890Z,997.49
2018-11-06T09:28:07.971Z,997.45
2018-11-06T09:29:39.747Z,997.54
2018-11-06T09:30:53.660Z,997.55
2018-11-06T09:32:08.783Z,997.57
2018-11-06T09:33:22.599Z,997.61
2018-11-06T09:34:36.316Z,997.65
2018-11-06T09:35:50.136Z,997.66
2018-11-06T09:37:03.988Z,997.71
2018-11-06T09:39:47.570Z,997.75
2018-11-06T09:41:01.071Z,997.72
2018-11-06T09:42:15.338Z,997.7
2018-11-06T09:43:29.352Z,997.73
2018-11-06T09:44:42.747Z,997.7
2018-11-06T09:45:57.017Z,997.73
2018-11-06T09:47:10.616Z,997.69
2018-11-06T09:48:30.201Z,997.67
2018-11-06T09:49:44.473Z,997.69
2018-11-06T09:50:58.286Z,997.68
2018-11-06T09:52:12.307Z,997.68
2018-11-06T09:53:26.108Z,997.75
2018-11-06T09:54:39.683Z,997.76
2018-11-06T09:55:53.493Z,997.8
2018-11-06T09:57:07.261Z,997.77
2018-11-06T09:58:29.163Z,997.74
2018-11-06T09:59:43.430Z,997.79
2018-11-06T10:00:57.939Z,997.73
2018-11-06T10:02:11.586Z,997.71
2018-11-06T10:03:25.176Z,997.79
2018-11-06T10:04:39.660Z,997.65
2018-11-06T10:05:53.916Z,997.69
2018-11-06T10:07:08.942Z,997.64
2018-11-06T10:08:39.778Z,997.65
2018-11-06T10:09:53.337Z,997.68
2018-11-06T10:11:07.383Z,997.66
2018-11-06T10:12:21.227Z,997.64
2018-11-06T10:13:35.061Z,997.57
2018-11-06T10:14:49.046Z,997.56
2018-11-06T10:16:03.105Z,997.59
2018-11-06T10:17:16.210Z,997.56
2018-11-06T10:18:30.023Z,997.55
2018-11-06T10:19:44.100Z,997.51
2018-11-06T10:20:58.199Z,997.56
2018-11-06T10:22:12.537Z,997.49
2018-11-06T10:23:26.572Z,997.45
2018-11-06T10:24:40.871Z,997.38
2018-11-06T10:25:54.903Z,997.39
2018-11-06T10:27:08.735Z,997.4
2018-11-06T10:28:22.533Z,997.36
2018-11-06T10:29:36.375Z,997.33
2018-11-06T10:30:50.494Z,997.33
2018-11-06T10:32:05.191Z,997.28
2018-11-06T10:33:19.004Z,997.32
2018-11-06T10:34:33.077Z,997.26
2018-11-06T10:35:46.882Z,997.26
2018-11-06T10:37:01.146Z,997.24
2018-11-06T10:38:14.986Z,997.22
2018-11-06T10:39:29.139Z,997.17
2018-11-06T10:40:43.495Z,997.19
2018-11-06T10:41:57.549Z,997.16
2018-11-06T10:43:11.138Z,997.13
2018-11-06T10:44:24.913Z,997.11
2018-11-06T10:45:39.154Z,997.1
2018-11-06T10:46:52.907Z,997.11
2018-11-06T10:48:06.993Z,997.08
2018-11-06T10:49:20.805Z,997.05
2018-11-06T10:50:34.378Z,997.08
2018-11-06T10:51:48.545Z,997.01
2018-11-06T10:53:03.758Z,997.05
2018-11-06T10:54:17.641Z,997.09
2018-11-06T10:55:31.688Z,996.97
2018-11-06T10:56:45.322Z,996.94
2018-11-06T10:57:59.429Z,996.95
2018-11-06T10:59:13.604Z,996.91
2018-11-06T11:00:27.880Z,996.89
2018-11-06T11:01:42.156Z,996.88
2018-11-06T11:02:55.708Z,996.86
2018-11-06T11:04:09.945Z,996.86
2018-11-06T11:05:24.557Z,996.89
2018-11-06T11:06:38.645Z,996.89
2018-11-06T11:07:52.688Z,996.82
2018-11-06T11:09:06.981Z,996.84
2018-11-06T11:10:21.247Z,996.83
2018-11-06T11:11:35.534Z,996.79
2018-11-06T11:12:49.720Z,996.84
2018-11-06T11:14:04.037Z,996.82
2018-11-06T11:15:17.813Z,996.75
2018-11-06T11:16:31.858Z,996.76
2018-11-06T11:17:45.923Z,996.69
2018-11-06T11:18:59.717Z,996.69
2018-11-06T11:20:14.031Z,996.62
2018-11-06T11:21:28.244Z,996.63
2018-11-06T11:22:41.873Z,996.57
2018-11-06T11:23:55.706Z,996.55
2018-11-06T11:25:09.799Z,996.56
2018-11-06T11:26:23.658Z,996.53
2018-11-06T11:27:37.992Z,996.49
2018-11-06T11:28:52.464Z,996.54
2018-11-06T11:30:06.493Z,996.51
2018-11-06T11:31:20.307Z,996.47
2018-11-06T11:32:33.881Z,996.49
2018-11-06T11:33:47.516Z,996.49
2018-11-06T11:35:01.973Z,996.52
2018-11-06T11:36:16.085Z,996.5
2018-11-06T11:37:35.245Z,996.5
2018-11-06T11:38:49.842Z,996.48
2018-11-06T11:40:03.739Z,996.54
2018-11-06T11:41:32.980Z,996.53
2018-11-06T11:42:47.239Z,996.53
2018-11-06T11:44:01.063Z,996.51
2018-11-06T11:45:29.983Z,996.43
2018-11-06T11:46:44.230Z,996.45
2018-11-06T11:47:58.063Z,996.4
2018-11-06T11:49:12.356Z,996.43
2018-11-06T11:50:26.364Z,996.42
2018-11-06T11:51:40.195Z,996.41
2018-11-06T11:52:54.495Z,996.36
2018-11-06T11:54:08.296Z,996.27
2018-11-06T11:55:22.592Z,996.28
2018-11-06T11:56:36.713Z,996.24
2018-11-06T11:57:50.531Z,996.24
2018-11-06T11:59:04.338Z,996.26
2018-11-06T12:00:33.284Z,996.26
2018-11-06T12:01:47.335Z,996.25
2018-11-06T12:03:00.734Z,996.3
2018-11-06T12:04:14.321Z,996.31
2018-11-06T12:05:43.521Z,996.29
2018-11-06T12:08:27.259Z,996.31
2018-11-06T12:09:41.092Z,996.28
2018-11-06T12:10:55.113Z,996.25
2018-11-06T12:12:09.669Z,996.23
2018-11-06T12:13:23.954Z,996.21
2018-11-06T12:15:07.601Z,996.18
2018-11-06T12:16:21.662Z,996.17
2018-11-06T12:17:36.191Z,996.14
2018-11-06T12:18:49.681Z,996.14
2018-11-06T12:20:03.261Z,996.18
2018-11-06T12:21:17.080Z,996.12
2018-11-06T12:22:31.139Z,996.08
2018-11-06T12:23:45.384Z,996.08
2018-11-06T12:24:59.426Z,996.07
2018-11-06T12:26:15.494Z,996.04
2018-11-06T12:27:29.541Z,996
2018-11-06T12:28:43.774Z,995.99
2018-11-06T12:29:58.374Z,995.95
2018-11-06T12:31:12.197Z,995.97
2018-11-06T12:32:26.332Z,995.94
2018-11-06T12:33:39.819Z,995.88
2018-11-06T12:34:53.854Z,995.88
2018-11-06T12:36:22.712Z,995.9
2018-11-06T12:37:51.597Z,995.94
2018-11-06T12:39:05.804Z,995.92
2018-11-06T12:40:19.237Z,995.88
2018-11-06T12:41:32.926Z,995.9
2018-11-06T12:42:47.273Z,995.88
2018-11-06T12:44:01.955Z,995.81
2018-11-06T12:45:15.846Z,995.89
2018-11-06T12:46:29.894Z,995.85
2018-11-06T12:47:59.996Z,995.83
2018-11-06T12:49:14.347Z,995.87
2018-11-06T12:50:28.649Z,995.88
2018-11-06T12:51:42.565Z,995.87
2018-11-06T12:52:56.159Z,995.83
2018-11-06T12:54:10.671Z,995.81
2018-11-06T12:55:24.790Z,995.79
2018-11-06T12:56:44.207Z,995.77
2018-11-06T12:57:58.269Z,995.75
2018-11-06T12:59:12.339Z,995.76
2018-11-06T13:00:26.868Z,995.77
2018-11-06T13:01:41.405Z,995.83
2018-11-06T13:02:55.251Z,995.8
2018-11-06T13:04:09.104Z,995.82
2018-11-06T13:05:23.172Z,995.81
2018-11-06T13:06:37.462Z,995.77
2018-11-06T13:07:51.592Z,995.8
2018-11-06T13:09:05.452Z,995.81
2018-11-06T13:10:19.259Z,995.8
2018-11-06T13:11:33.310Z,995.77
2018-11-06T13:12:47.892Z,995.76
2018-11-06T13:14:02.508Z,995.75
2018-11-06T13:15:17.490Z,995.72
2018-11-06T13:16:32.220Z,995.71
2018-11-06T13:17:46.270Z,995.58
2018-11-06T13:19:00.320Z,995.57
2018-11-06T13:20:14.363Z,995.68
2018-11-06T13:21:28.185Z,995.54
2018-11-06T13:22:41.768Z,995.58
2018-11-06T13:23:56.066Z,995.54
2018-11-06T13:25:09.752Z,995.5
2018-11-06T13:26:24.559Z,995.58
2018-11-06T13:27:40.110Z,995.66
2018-11-06T13:28:54.301Z,995.61
2018-11-06T13:30:08.110Z,995.62
2018-11-06T13:31:22.143Z,995.6
2018-11-06T13:32:36.515Z,995.56
2018-11-06T13:33:50.767Z,995.55
2018-11-06T13:35:04.574Z,995.55
2018-11-06T13:36:17.917Z,995.52
2018-11-06T13:37:31.977Z,995.53
2018-11-06T13:38:46.757Z,995.55
2018-11-06T13:40:00.812Z,995.57
2018-11-06T13:41:14.617Z,995.56
2018-11-06T13:42:29.198Z,995.51
2018-11-06T13:43:44.502Z,995.5
2018-11-06T13:45:00.152Z,995.53
2018-11-06T13:46:15.446Z,995.5
2018-11-06T13:47:29.509Z,995.51
2018-11-06T13:48:44.134Z,995.45
2018-11-06T13:49:58.205Z,995.52
2018-11-06T13:51:12.776Z,995.54
2018-11-06T13:52:27.387Z,995.54
2018-11-06T13:53:41.688Z,995.58
2018-11-06T13:54:55.492Z,995.48
2018-11-06T13:56:09.606Z,995.47
2018-11-06T13:57:23.945Z,995.48
2018-11-06T13:58:38.343Z,995.56
2018-11-06T13:59:52.186Z,995.53
2018-11-06T14:01:06.040Z,995.49
2018-11-06T14:02:20.365Z,995.45
2018-11-06T14:03:34.551Z,995.46
2018-11-06T14:04:48.792Z,995.54
2018-11-06T14:06:02.848Z,995.61
2018-11-06T14:07:16.533Z,995.46
2018-11-06T14:08:30.828Z,995.48
2018-11-06T14:09:45.400Z,995.53
2018-11-06T14:10:59.687Z,995.54
2018-11-06T14:12:12.783Z,995.51
2018-11-06T14:13:26.841Z,995.57
2018-11-06T14:14:40.687Z,995.61
2018-11-06T14:15:54.261Z,995.58
2018-11-06T14:17:08.374Z,995.53
2018-11-06T14:18:22.179Z,995.58
2018-11-06T14:19:36.142Z,995.53
2018-11-06T14:20:49.979Z,995.54
2018-11-06T14:22:04.747Z,995.5
2018-11-06T14:23:19.245Z,995.45
2018-11-06T14:24:33.176Z,995.54
2018-11-06T14:25:46.528Z,995.48
2018-11-06T14:27:00.596Z,995.51
2018-11-06T14:28:15.961Z,995.47
2018-11-06T14:29:29.770Z,995.53
2018-11-06T14:30:44.050Z,995.48
2018-11-06T14:31:58.035Z,995.51
2018-11-06T14:33:11.850Z,995.51
2018-11-06T14:34:25.957Z,995.54
2018-11-06T14:35:40.249Z,995.54
2018-11-06T14:36:54.499Z,995.55
2018-11-06T14:38:08.549Z,995.54
2018-11-06T14:39:22.382Z,995.54
2018-11-06T14:40:36.725Z,995.5
2018-11-06T14:41:50.326Z,995.57
2018-11-06T14:43:04.209Z,995.58
2018-11-06T14:44:18.073Z,995.61
2018-11-06T14:45:34.193Z,995.62
2018-11-06T14:46:48.543Z,995.67
2018-11-06T14:48:02.472Z,995.6
2018-11-06T14:49:17.544Z,995.66
2018-11-06T14:50:32.546Z,995.69
2018-11-06T14:51:46.122Z,995.68
2018-11-06T14:53:00.463Z,995.62
2018-11-06T14:54:14.538Z,995.64
2018-11-06T14:55:28.183Z,995.67
2018-11-06T14:56:41.783Z,995.68
2018-11-06T14:57:55.636Z,995.64
2018-11-06T14:59:10.195Z,995.65
2018-11-06T15:00:24.149Z,995.65
2018-11-06T15:01:38.119Z,995.63
2018-11-06T15:02:52.641Z,995.66
2018-11-06T15:04:06.956Z,995.61
2018-11-06T15:05:24.239Z,995.61
2018-11-06T15:06:38.221Z,995.63
2018-11-06T15:07:52.788Z,995.62
2018-11-06T15:09:07.087Z,995.68
2018-11-06T15:10:20.912Z,995.69
2018-11-06T15:11:34.790Z,995.71
2018-11-06T15:12:49.766Z,995.75
2018-11-06T15:14:04.158Z,995.78
2018-11-06T15:15:18.703Z,995.81
2018-11-06T15:16:47.713Z,995.78
2018-11-06T15:18:01.806Z,995.76
2018-11-06T15:19:15.694Z,995.76
2018-11-06T15:20:30.015Z,995.78
2018-11-06T15:21:43.914Z,995.76
2018-11-06T15:22:57.698Z,995.72
2018-11-06T15:24:11.492Z,995.72
2018-11-06T15:25:26.101Z,995.71
2018-11-06T15:26:40.175Z,995.72
2018-11-06T15:27:54.735Z,995.73
2018-11-06T15:29:08.296Z,995.69
2018-11-06T15:30:22.635Z,995.67
2018-11-06T15:31:36.704Z,995.64
2018-11-06T15:32:50.789Z,995.67
2018-11-06T15:34:04.609Z,995.65
2018-11-06T15:35:18.416Z,995.66
2018-11-06T15:36:32.257Z,995.67
2018-11-06T15:37:46.431Z,995.65
2018-11-06T15:39:00.691Z,995.67
2018-11-06T15:40:14.895Z,995.65
2018-11-06T15:41:29.229Z,995.6
2018-11-06T15:42:43.742Z,995.6
2018-11-06T15:43:57.677Z,995.64
2018-11-06T15:45:11.297Z,995.63
2018-11-06T15:46:25.349Z,995.63
2018-11-06T15:47:39.403Z,995.64
2018-11-06T15:48:53.000Z,995.67
2018-11-06T15:50:07.545Z,995.67
2018-11-06T15:51:21.387Z,995.62
2018-11-06T15:52:35.648Z,995.65
2018-11-06T15:53:49.459Z,995.68
2018-11-06T15:55:03.509Z,995.69
2018-11-06T15:56:17.319Z,995.71
2018-11-06T15:57:31.587Z,995.73
2018-11-06T15:58:45.932Z,995.72